sensor_id;sensor_type;location;lat;lon;timestamp;pressure;altitude;pressure_sealevel;temperature;humidity
65131;BME280;51709;54.912;8.316;2023-05-15T00:00:50;101419.72;;;14.10;61.39
65131;BME280;51709;54.912;8.316;2023-05-15T00:06:10;101416.44;;;14.03;61.68
65131;BME280;51709;54.912;8.316;2023-05-15T00:11:31;101408.72;;;14.01;61.85
65131;BME280;51709;54.912;8.316;2023-05-15T00:16:52;101401.91;;;13.99;61.82
65131;BME280;51709;54.912;8.316;2023-05-15T00:22:12;101396.81;;;13.97;61.84
65131;BME280;51709;54.912;8.316;2023-05-15T00:27:33;101395.19;;;13.93;61.96
65131;BME280;51709;54.912;8.316;2023-05-15T00:32:55;101387.50;;;13.90;61.91
65131;BME280;51709;54.912;8.316;2023-05-15T00:38:17;101385.88;;;13.87;61.92
65131;BME280;51709;54.912;8.316;2023-05-15T00:43:38;101377.31;;;13.85;62.04
65131;BME280;51709;54.912;8.316;2023-05-15T00:49:03;101369.66;;;13.82;62.07
65131;BME280;51709;54.912;8.316;2023-05-15T00:54:24;101365.34;;;13.83;61.79
65131;BME280;51709;54.912;8.316;2023-05-15T00:59:45;101352.44;;;13.83;61.67
65131;BME280;51709;54.912;8.316;2023-05-15T01:05:07;101367.28;;;13.75;61.89
65131;BME280;51709;54.912;8.316;2023-05-15T01:10:28;101378.16;;;13.51;62.37
65131;BME280;51709;54.912;8.316;2023-05-15T01:15:50;101371.47;;;13.44;62.58
65131;BME280;51709;54.912;8.316;2023-05-15T01:21:52;101359.47;;;13.43;62.59
65131;BME280;51709;54.912;8.316;2023-05-15T01:27:29;101350.75;;;13.47;62.48
65131;BME280;51709;54.912;8.316;2023-05-15T01:44:21;101336.50;;;13.32;63.18
65131;BME280;51709;54.912;8.316;2023-05-15T01:49:46;101341.69;;;13.31;63.20
65131;BME280;51709;54.912;8.316;2023-05-15T01:55:09;101333.38;;;13.18;63.31
65131;BME280;51709;54.912;8.316;2023-05-15T02:00:31;101332.44;;;13.22;63.38
65131;BME280;51709;54.912;8.316;2023-05-15T02:05:53;101343.69;;;13.19;63.46
65131;BME280;51709;54.912;8.316;2023-05-15T02:11:15;101336.47;;;12.98;63.81
65131;BME280;51709;54.912;8.316;2023-05-15T02:16:38;101335.75;;;12.91;64.11
65131;BME280;51709;54.912;8.316;2023-05-15T02:22:00;101327.97;;;12.92;64.25
65131;BME280;51709;54.912;8.316;2023-05-15T02:27:26;101320.25;;;12.92;64.26
65131;BME280;51709;54.912;8.316;2023-05-15T02:32:58;101328.84;;;12.93;64.55
65131;BME280;51709;54.912;8.316;2023-05-15T02:38:28;101323.66;;;12.94;64.28
65131;BME280;51709;54.912;8.316;2023-05-15T02:43:51;101322.00;;;12.90;64.49
65131;BME280;51709;54.912;8.316;2023-05-15T02:49:14;101315.59;;;12.71;64.91
65131;BME280;51709;54.912;8.316;2023-05-15T02:54:34;101316.88;;;12.51;65.35
65131;BME280;51709;54.912;8.316;2023-05-15T02:59:55;101314.53;;;12.40;65.73
65131;BME280;51709;54.912;8.316;2023-05-15T03:05:16;101308.81;;;12.27;65.93
65131;BME280;51709;54.912;8.316;2023-05-15T03:10:38;101313.19;;;12.22;66.21
65131;BME280;51709;54.912;8.316;2023-05-15T03:15:58;101320.94;;;12.21;66.48
65131;BME280;51709;54.912;8.316;2023-05-15T03:21:19;101308.97;;;12.18;66.43
65131;BME280;51709;54.912;8.316;2023-05-15T03:26:40;101301.31;;;12.15;66.69
65131;BME280;51709;54.912;8.316;2023-05-15T03:32:02;101296.25;;;12.12;66.80
65131;BME280;51709;54.912;8.316;2023-05-15T03:37:22;101315.16;;;12.09;67.01
65131;BME280;51709;54.912;8.316;2023-05-15T03:42:44;101313.53;;;12.05;67.22
65131;BME280;51709;54.912;8.316;2023-05-15T03:48:05;101303.28;;;12.02;67.43
65131;BME280;51709;54.912;8.316;2023-05-15T03:53:26;101295.59;;;12.00;67.41
65131;BME280;51709;54.912;8.316;2023-05-15T03:58:46;101287.13;;;11.94;67.50
65131;BME280;51709;54.912;8.316;2023-05-15T04:04:07;101294.97;;;11.86;67.67
65131;BME280;51709;54.912;8.316;2023-05-15T04:09:27;101286.53;;;11.81;67.80
65131;BME280;51709;54.912;8.316;2023-05-15T04:14:48;101288.28;;;11.79;68.08
65131;BME280;51709;54.912;8.316;2023-05-15T04:20:09;101289.09;;;11.79;68.17
65131;BME280;51709;54.912;8.316;2023-05-15T04:25:30;101289.97;;;11.78;68.45
65131;BME280;51709;54.912;8.316;2023-05-15T04:30:51;101297.53;;;11.87;68.31
65131;BME280;51709;54.912;8.316;2023-05-15T04:36:11;101298.22;;;11.99;68.25
65131;BME280;51709;54.912;8.316;2023-05-15T04:41:32;101291.19;;;12.06;68.28
65131;BME280;51709;54.912;8.316;2023-05-15T04:46:53;101286.72;;;12.15;68.39
65131;BME280;51709;54.912;8.316;2023-05-15T04:52:13;101286.53;;;12.25;67.96
65131;BME280;51709;54.912;8.316;2023-05-15T04:57:34;101291.38;;;12.40;68.16
65131;BME280;51709;54.912;8.316;2023-05-15T05:02:55;101291.06;;;12.54;68.27
65131;BME280;51709;54.912;8.316;2023-05-15T05:08:15;101295.75;;;12.74;68.19
65131;BME280;51709;54.912;8.316;2023-05-15T05:13:36;101301.38;;;12.92;68.10
65131;BME280;51709;54.912;8.316;2023-05-15T05:18:57;101303.47;;;13.12;68.32
65131;BME280;51709;54.912;8.316;2023-05-15T05:24:18;101292.59;;;13.35;68.15
65131;BME280;51709;54.912;8.316;2023-05-15T05:29:38;101295.50;;;13.58;68.00
65131;BME280;51709;54.912;8.316;2023-05-15T05:34:59;101288.88;;;13.80;67.79
65131;BME280;51709;54.912;8.316;2023-05-15T05:40:20;101286.47;;;14.06;67.63
65131;BME280;51709;54.912;8.316;2023-05-15T05:45:41;101286.50;;;14.34;67.66
65131;BME280;51709;54.912;8.316;2023-05-15T05:51:02;101275.28;;;14.63;67.41
65131;BME280;51709;54.912;8.316;2023-05-15T05:56:22;101285.78;;;14.87;67.16
65131;BME280;51709;54.912;8.316;2023-05-15T06:01:43;101295.25;;;15.14;66.82
65131;BME280;51709;54.912;8.316;2023-05-15T06:07:03;101292.25;;;15.26;66.95
65131;BME280;51709;54.912;8.316;2023-05-15T06:12:24;101297.97;;;15.10;67.17
65131;BME280;51709;54.912;8.316;2023-05-15T06:17:44;101289.84;;;14.94;67.37
65131;BME280;51709;54.912;8.316;2023-05-15T06:23:06;101290.63;;;14.97;67.31
65131;BME280;51709;54.912;8.316;2023-05-15T06:28:26;101268.97;;;15.01;67.50
65131;BME280;51709;54.912;8.316;2023-05-15T06:33:47;101276.59;;;15.05;67.49
65131;BME280;51709;54.912;8.316;2023-05-15T06:39:07;101280.69;;;15.11;67.76
65131;BME280;51709;54.912;8.316;2023-05-15T06:44:32;101265.75;;;15.21;67.41
65131;BME280;51709;54.912;8.316;2023-05-15T06:49:53;101267.13;;;15.31;67.46
65131;BME280;51709;54.912;8.316;2023-05-15T06:55:14;101272.75;;;15.43;67.04
65131;BME280;51709;54.912;8.316;2023-05-15T07:00:35;101269.94;;;15.49;67.27
65131;BME280;51709;54.912;8.316;2023-05-15T07:05:55;101266.31;;;15.54;66.65
65131;BME280;51709;54.912;8.316;2023-05-15T07:11:16;101263.50;;;15.61;66.87
65131;BME280;51709;54.912;8.316;2023-05-15T07:16:37;101249.72;;;15.85;66.54
65131;BME280;51709;54.912;8.316;2023-05-15T07:21:58;101263.13;;;15.97;66.18
65131;BME280;51709;54.912;8.316;2023-05-15T07:27:22;101249.66;;;16.11;65.84
65131;BME280;51709;54.912;8.316;2023-05-15T07:32:43;101251.41;;;16.32;65.72
65131;BME280;51709;54.912;8.316;2023-05-15T07:38:04;101241.53;;;16.42;65.49
65131;BME280;51709;54.912;8.316;2023-05-15T07:43:24;101255.16;;;16.47;65.28
65131;BME280;51709;54.912;8.316;2023-05-15T07:48:45;101259.44;;;16.48;65.04
65131;BME280;51709;54.912;8.316;2023-05-15T07:54:06;101248.47;;;16.42;65.11
65131;BME280;51709;54.912;8.316;2023-05-15T07:59:27;101255.94;;;16.49;65.15
65131;BME280;51709;54.912;8.316;2023-05-15T08:04:48;101258.00;;;16.63;64.59
65131;BME280;51709;54.912;8.316;2023-05-15T08:10:08;101256.91;;;16.47;64.82
65131;BME280;51709;54.912;8.316;2023-05-15T08:15:30;101264.84;;;16.42;64.58
65131;BME280;51709;54.912;8.316;2023-05-15T08:20:50;101260.94;;;16.32;65.13
65131;BME280;51709;54.912;8.316;2023-05-15T08:26:11;101258.47;;;16.29;64.68
65131;BME280;51709;54.912;8.316;2023-05-15T08:31:32;101249.72;;;16.31;64.55
65131;BME280;51709;54.912;8.316;2023-05-15T08:36:53;101258.09;;;16.38;64.38
65131;BME280;51709;54.912;8.316;2023-05-15T08:42:20;101240.69;;;16.42;63.81
65131;BME280;51709;54.912;8.316;2023-05-15T08:47:43;101242.56;;;16.38;63.52
65131;BME280;51709;54.912;8.316;2023-05-15T08:53:04;101244.00;;;16.23;63.53
65131;BME280;51709;54.912;8.316;2023-05-15T08:58:25;101238.00;;;16.23;63.29
65131;BME280;51709;54.912;8.316;2023-05-15T09:03:47;101241.06;;;16.32;62.92
65131;BME280;51709;54.912;8.316;2023-05-15T09:09:08;101236.06;;;16.50;62.64
65131;BME280;51709;54.912;8.316;2023-05-15T09:14:32;101232.75;;;16.89;61.63
65131;BME280;51709;54.912;8.316;2023-05-15T09:19:53;101244.72;;;17.14;61.13
65131;BME280;51709;54.912;8.316;2023-05-15T09:25:30;101239.88;;;17.67;59.84
65131;BME280;51709;54.912;8.316;2023-05-15T09:30:57;101226.22;;;17.43;60.34
65131;BME280;51709;54.912;8.316;2023-05-15T09:36:20;101226.31;;;17.00;60.45
65131;BME280;51709;54.912;8.316;2023-05-15T09:41:41;101236.69;;;16.77;60.67
65131;BME280;51709;54.912;8.316;2023-05-15T09:47:04;101231.50;;;16.77;60.47
65131;BME280;51709;54.912;8.316;2023-05-15T09:52:26;101235.53;;;16.85;59.96
65131;BME280;51709;54.912;8.316;2023-05-15T09:58:11;101215.94;;;17.00;59.29
65131;BME280;51709;54.912;8.316;2023-05-15T10:03:32;101236.19;;;16.90;59.17
65131;BME280;51709;54.912;8.316;2023-05-15T10:08:53;101227.69;;;17.48;58.19
65131;BME280;51709;54.912;8.316;2023-05-15T10:14:15;101215.63;;;17.87;57.20
65131;BME280;51709;54.912;8.316;2023-05-15T10:19:36;101217.84;;;18.33;56.26
65131;BME280;51709;54.912;8.316;2023-05-15T10:30:44;101214.50;;;17.93;56.35
65131;BME280;51709;54.912;8.316;2023-05-15T10:36:06;101222.63;;;17.66;56.73
65131;BME280;51709;54.912;8.316;2023-05-15T10:41:28;101211.72;;;17.96;56.18
65131;BME280;51709;54.912;8.316;2023-05-15T10:46:50;101223.22;;;18.47;54.97
65131;BME280;51709;54.912;8.316;2023-05-15T10:52:12;101223.44;;;18.60;54.38
65131;BME280;51709;54.912;8.316;2023-05-15T10:57:32;101223.47;;;18.24;54.85
65131;BME280;51709;54.912;8.316;2023-05-15T11:02:53;101207.97;;;17.84;55.09
65131;BME280;51709;54.912;8.316;2023-05-15T11:30:18;101208.59;;;17.51;54.53
65131;BME280;51709;54.912;8.316;2023-05-15T11:35:45;101204.50;;;17.64;53.79
65131;BME280;51709;54.912;8.316;2023-05-15T11:41:19;101195.25;;;17.59;53.38
65131;BME280;51709;54.912;8.316;2023-05-15T11:46:41;101209.03;;;17.40;53.31
65131;BME280;51709;54.912;8.316;2023-05-15T11:52:03;101210.59;;;17.23;53.50
65131;BME280;51709;54.912;8.316;2023-05-15T11:57:25;101208.00;;;17.23;53.49
65131;BME280;51709;54.912;8.316;2023-05-15T12:02:46;101224.69;;;17.18;53.40
65131;BME280;51709;54.912;8.316;2023-05-15T12:08:11;101210.97;;;17.16;53.13
65131;BME280;51709;54.912;8.316;2023-05-15T12:13:33;101214.34;;;17.37;52.63
65131;BME280;51709;54.912;8.316;2023-05-15T12:18:57;101210.88;;;17.17;53.08
65131;BME280;51709;54.912;8.316;2023-05-15T12:24:19;101226.31;;;17.00;53.32
65131;BME280;51709;54.912;8.316;2023-05-15T12:29:41;101229.56;;;16.83;53.35
65131;BME280;51709;54.912;8.316;2023-05-15T12:35:03;101228.88;;;17.00;53.12
65131;BME280;51709;54.912;8.316;2023-05-15T12:40:25;101216.56;;;17.25;52.17
65131;BME280;51709;54.912;8.316;2023-05-15T12:45:51;101214.47;;;16.92;52.91
65131;BME280;51709;54.912;8.316;2023-05-15T12:51:15;101218.88;;;17.13;52.35
65131;BME280;51709;54.912;8.316;2023-05-15T12:56:36;101228.66;;;17.06;52.51
65131;BME280;51709;54.912;8.316;2023-05-15T13:01:57;101221.47;;;16.70;52.79
65131;BME280;51709;54.912;8.316;2023-05-15T13:07:17;101221.31;;;16.52;53.02
65131;BME280;51709;54.912;8.316;2023-05-15T13:12:41;101217.75;;;16.32;53.52
65131;BME280;51709;54.912;8.316;2023-05-15T13:23:25;101207.19;;;16.59;52.78
65131;BME280;51709;54.912;8.316;2023-05-15T13:28:46;101214.59;;;16.46;52.94
65131;BME280;51709;54.912;8.316;2023-05-15T13:34:07;101203.19;;;16.30;53.11
65131;BME280;51709;54.912;8.316;2023-05-15T13:39:27;101211.97;;;16.26;53.28
65131;BME280;51709;54.912;8.316;2023-05-15T13:44:48;101211.53;;;16.37;52.98
65131;BME280;51709;54.912;8.316;2023-05-15T13:50:12;101188.03;;;15.97;53.75
65131;BME280;51709;54.912;8.316;2023-05-15T13:55:33;101191.44;;;15.74;53.87
65131;BME280;51709;54.912;8.316;2023-05-15T14:00:54;101188.75;;;15.53;54.13
65131;BME280;51709;54.912;8.316;2023-05-15T14:06:14;101200.38;;;15.65;53.73
65131;BME280;51709;54.912;8.316;2023-05-15T14:11:35;101212.72;;;15.34;54.13
65131;BME280;51709;54.912;8.316;2023-05-15T14:16:56;101208.00;;;15.20;54.46
65131;BME280;51709;54.912;8.316;2023-05-15T14:22:16;101191.41;;;15.26;54.27
65131;BME280;51709;54.912;8.316;2023-05-15T14:27:37;101199.50;;;15.17;54.61
65131;BME280;51709;54.912;8.316;2023-05-15T14:32:58;101196.91;;;15.17;54.81
65131;BME280;51709;54.912;8.316;2023-05-15T14:38:18;101215.28;;;14.82;55.45
65131;BME280;51709;54.912;8.316;2023-05-15T14:43:39;101225.50;;;14.30;56.35
65131;BME280;51709;54.912;8.316;2023-05-15T14:48:59;101227.06;;;13.77;57.19
65131;BME280;51709;54.912;8.316;2023-05-15T14:54:20;101219.97;;;13.19;58.40
65131;BME280;51709;54.912;8.316;2023-05-15T14:59:40;101243.84;;;12.93;59.06
65131;BME280;51709;54.912;8.316;2023-05-15T15:05:01;101249.69;;;12.63;59.50
65131;BME280;51709;54.912;8.316;2023-05-15T15:10:22;101249.09;;;12.51;59.82
65131;BME280;51709;54.912;8.316;2023-05-15T15:15:45;101236.38;;;12.43;60.43
65131;BME280;51709;54.912;8.316;2023-05-15T15:21:05;101250.50;;;12.64;60.08
65131;BME280;51709;54.912;8.316;2023-05-15T15:26:26;101260.66;;;12.70;59.81
65131;BME280;51709;54.912;8.316;2023-05-15T15:31:47;101254.38;;;12.82;59.38
65131;BME280;51709;54.912;8.316;2023-05-15T15:37:08;101249.34;;;12.40;60.27
65131;BME280;51709;54.912;8.316;2023-05-15T15:42:28;101258.78;;;11.95;61.19
65131;BME280;51709;54.912;8.316;2023-05-15T15:47:49;101250.53;;;11.81;61.62
65131;BME280;51709;54.912;8.316;2023-05-15T15:53:09;101256.88;;;11.61;61.80
65131;BME280;51709;54.912;8.316;2023-05-15T15:58:30;101273.47;;;11.45;62.21
65131;BME280;51709;54.912;8.316;2023-05-15T16:03:51;101276.03;;;11.43;62.21
65131;BME280;51709;54.912;8.316;2023-05-15T16:09:11;101290.69;;;11.39;62.29
65131;BME280;51709;54.912;8.316;2023-05-15T16:14:32;101293.53;;;11.22;62.39
65131;BME280;51709;54.912;8.316;2023-05-15T16:19:53;101284.44;;;11.01;62.92
65131;BME280;51709;54.912;8.316;2023-05-15T16:25:14;101272.50;;;10.99;62.81
65131;BME280;51709;54.912;8.316;2023-05-15T16:30:34;101252.19;;;10.83;63.07
65131;BME280;51709;54.912;8.316;2023-05-15T16:36:00;101271.09;;;10.77;63.40
65131;BME280;51709;54.912;8.316;2023-05-15T16:41:20;101268.38;;;10.88;63.08
65131;BME280;51709;54.912;8.316;2023-05-15T16:46:41;101282.06;;;10.90;63.12
65131;BME280;51709;54.912;8.316;2023-05-15T16:52:01;101271.03;;;10.82;63.43
65131;BME280;51709;54.912;8.316;2023-05-15T16:57:22;101269.38;;;10.79;63.48
65131;BME280;51709;54.912;8.316;2023-05-15T17:02:43;101260.72;;;10.87;63.59
65131;BME280;51709;54.912;8.316;2023-05-15T17:08:04;101266.72;;;10.86;63.66
65131;BME280;51709;54.912;8.316;2023-05-15T17:13:25;101267.66;;;10.80;63.84
65131;BME280;51709;54.912;8.316;2023-05-15T17:18:47;101263.47;;;10.74;63.79
65131;BME280;51709;54.912;8.316;2023-05-15T17:24:07;101262.66;;;10.71;63.89
65131;BME280;51709;54.912;8.316;2023-05-15T17:29:29;101266.22;;;10.60;64.25
65131;BME280;51709;54.912;8.316;2023-05-15T17:34:49;101273.06;;;10.61;64.37
65131;BME280;51709;54.912;8.316;2023-05-15T17:40:11;101252.59;;;10.57;64.37
65131;BME280;51709;54.912;8.316;2023-05-15T17:45:31;101270.56;;;10.58;64.51
65131;BME280;51709;54.912;8.316;2023-05-15T17:50:52;101280.84;;;10.55;64.32
65131;BME280;51709;54.912;8.316;2023-05-15T17:56:14;101262.13;;;10.48;64.55
65131;BME280;51709;54.912;8.316;2023-05-15T18:01:35;101272.38;;;10.48;64.57
65131;BME280;51709;54.912;8.316;2023-05-15T18:06:56;101262.19;;;10.42;64.68
65131;BME280;51709;54.912;8.316;2023-05-15T18:12:16;101258.81;;;10.36;64.79
65131;BME280;51709;54.912;8.316;2023-05-15T18:17:37;101274.22;;;10.40;64.80
65131;BME280;51709;54.912;8.316;2023-05-15T18:22:58;101282.78;;;10.36;64.79
65131;BME280;51709;54.912;8.316;2023-05-15T18:28:19;101294.91;;;10.25;64.89
65131;BME280;51709;54.912;8.316;2023-05-15T18:33:39;101296.81;;;10.07;65.34
65131;BME280;51709;54.912;8.316;2023-05-15T18:39:04;101289.94;;;10.09;65.32
65131;BME280;51709;54.912;8.316;2023-05-15T18:44:25;101293.38;;;10.08;65.20
65131;BME280;51709;54.912;8.316;2023-05-15T18:49:46;101298.56;;;10.03;65.42
65131;BME280;51709;54.912;8.316;2023-05-15T18:55:07;101312.31;;;9.96;65.69
65131;BME280;51709;54.912;8.316;2023-05-15T19:00:31;101327.81;;;9.87;66.16
65131;BME280;51709;54.912;8.316;2023-05-15T19:05:55;101328.66;;;9.87;66.27
65131;BME280;51709;54.912;8.316;2023-05-15T19:11:16;101338.91;;;9.87;66.55
65131;BME280;51709;54.912;8.316;2023-05-15T19:16:36;101319.22;;;9.93;66.41
65131;BME280;51709;54.912;8.316;2023-05-15T19:21:57;101338.00;;;9.92;66.48
65131;BME280;51709;54.912;8.316;2023-05-15T19:27:17;101325.16;;;9.93;66.61
65131;BME280;51709;54.912;8.316;2023-05-15T19:32:38;101320.00;;;9.95;66.72
65131;BME280;51709;54.912;8.316;2023-05-15T19:37:59;101313.22;;;9.92;66.96
65131;BME280;51709;54.912;8.316;2023-05-15T19:43:20;101331.16;;;9.92;67.05
65131;BME280;51709;54.912;8.316;2023-05-15T19:48:40;101339.69;;;9.94;67.27
65131;BME280;51709;54.912;8.316;2023-05-15T19:54:04;101315.78;;;9.92;67.37
65131;BME280;51709;54.912;8.316;2023-05-15T19:59:25;101342.28;;;9.91;67.32
65131;BME280;51709;54.912;8.316;2023-05-15T20:04:46;101326.03;;;9.92;67.33
65131;BME280;51709;54.912;8.316;2023-05-15T20:10:07;101343.94;;;9.95;67.41
65131;BME280;51709;54.912;8.316;2023-05-15T20:15:28;101329.38;;;9.99;67.27
65131;BME280;51709;54.912;8.316;2023-05-15T20:20:50;101336.22;;;10.00;67.51
65131;BME280;51709;54.912;8.316;2023-05-15T20:26:12;101348.22;;;9.96;67.61
65131;BME280;51709;54.912;8.316;2023-05-15T20:31:32;101359.31;;;9.98;67.59
65131;BME280;51709;54.912;8.316;2023-05-15T20:36:53;101367.81;;;10.00;67.71
65131;BME280;51709;54.912;8.316;2023-05-15T20:42:14;101355.88;;;9.99;67.82
65131;BME280;51709;54.912;8.316;2023-05-15T20:47:35;101369.56;;;9.97;67.99
65131;BME280;51709;54.912;8.316;2023-05-15T20:52:55;101361.88;;;9.98;68.07
65131;BME280;51709;54.912;8.316;2023-05-15T20:58:16;101359.25;;;10.01;68.04
65131;BME280;51709;54.912;8.316;2023-05-15T21:03:37;101366.94;;;10.05;67.98
65131;BME280;51709;54.912;8.316;2023-05-15T21:08:58;101365.22;;;10.03;67.92
65131;BME280;51709;54.912;8.316;2023-05-15T21:14:19;101361.06;;;9.93;68.33
65131;BME280;51709;54.912;8.316;2023-05-15T21:19:39;101336.44;;;9.78;68.63
65131;BME280;51709;54.912;8.316;2023-05-15T21:25:00;101349.34;;;9.69;69.00
65131;BME280;51709;54.912;8.316;2023-05-15T21:30:20;101353.66;;;9.64;68.88
65131;BME280;51709;54.912;8.316;2023-05-15T21:35:42;101373.34;;;9.60;68.99
65131;BME280;51709;54.912;8.316;2023-05-15T21:41:04;101379.28;;;9.61;68.97
65131;BME280;51709;54.912;8.316;2023-05-15T21:46:24;101369.91;;;9.61;68.85
65131;BME280;51709;54.912;8.316;2023-05-15T21:51:45;101381.06;;;9.55;68.96
65131;BME280;51709;54.912;8.316;2023-05-15T21:57:06;101386.19;;;9.55;68.88
65131;BME280;51709;54.912;8.316;2023-05-15T22:02:26;101377.63;;;9.56;68.86
65131;BME280;51709;54.912;8.316;2023-05-15T22:07:47;101388.75;;;9.55;68.62
65131;BME280;51709;54.912;8.316;2023-05-15T22:13:08;101389.59;;;9.54;68.73
65131;BME280;51709;54.912;8.316;2023-05-15T22:18:29;101369.13;;;9.51;68.34
65131;BME280;51709;54.912;8.316;2023-05-15T22:23:51;101350.31;;;9.54;68.77
65131;BME280;51709;54.912;8.316;2023-05-15T22:29:11;101357.19;;;9.52;68.58
65131;BME280;51709;54.912;8.316;2023-05-15T22:34:32;101365.72;;;9.49;68.81
65131;BME280;51709;54.912;8.316;2023-05-15T22:39:53;101378.53;;;9.51;68.67
65131;BME280;51709;54.912;8.316;2023-05-15T22:45:14;101383.63;;;9.55;68.71
65131;BME280;51709;54.912;8.316;2023-05-15T22:50:38;101372.50;;;9.55;68.63
65131;BME280;51709;54.912;8.316;2023-05-15T22:55:58;101382.78;;;9.53;69.12
65131;BME280;51709;54.912;8.316;2023-05-15T23:01:19;101384.50;;;9.51;68.83
65131;BME280;51709;54.912;8.316;2023-05-15T23:06:40;101377.69;;;9.52;68.96
65131;BME280;51709;54.912;8.316;2023-05-15T23:12:00;101384.47;;;9.56;68.87
65131;BME280;51709;54.912;8.316;2023-05-15T23:17:23;101385.34;;;9.53;69.07
65131;BME280;51709;54.912;8.316;2023-05-15T23:22:46;101379.38;;;9.48;69.24
65131;BME280;51709;54.912;8.316;2023-05-15T23:28:07;101376.88;;;9.44;69.32
65131;BME280;51709;54.912;8.316;2023-05-15T23:33:27;101370.91;;;9.40;69.44
65131;BME280;51709;54.912;8.316;2023-05-15T23:38:48;101359.84;;;9.39;69.45
65131;BME280;51709;54.912;8.316;2023-05-15T23:44:08;101358.97;;;9.36;69.47
65131;BME280;51709;54.912;8.316;2023-05-15T23:49:29;101364.16;;;9.31;69.70
65131;BME280;51709;54.912;8.316;2023-05-15T23:54:52;101372.72;;;9.27;69.48
